createdAt,value
2018-03-08T00:01:00.677Z,3.76
2018-03-08T00:03:29.000Z,3.79
2018-03-08T00:05:57.340Z,3.82
2018-03-08T00:08:25.624Z,3.82
2018-03-08T00:10:54.181Z,3.79
2018-03-08T00:13:22.480Z,3.79
2018-03-08T00:15:50.867Z,3.80
2018-03-08T00:18:19.141Z,3.78
2018-03-08T00:20:47.445Z,3.76
2018-03-08T00:23:18.553Z,3.71
2018-03-08T00:25:46.944Z,3.69
2018-03-08T00:28:16.007Z,3.67
2018-03-08T00:30:44.336Z,3.67
2018-03-08T00:33:12.798Z,3.68
2018-03-08T00:35:41.150Z,3.69
2018-03-08T00:38:09.651Z,3.74
2018-03-08T00:40:37.945Z,3.76
2018-03-08T00:43:06.484Z,3.77
2018-03-08T00:45:34.771Z,3.77
2018-03-08T00:48:03.110Z,3.78
2018-03-08T00:50:31.429Z,3.81
2018-03-08T00:52:59.805Z,3.82
2018-03-08T00:55:28.233Z,3.85
2018-03-08T00:57:56.572Z,3.86
2018-03-08T01:00:24.914Z,3.90
2018-03-08T01:02:55.256Z,3.91
2018-03-08T01:05:23.593Z,3.90
2018-03-08T01:07:52.046Z,3.89
2018-03-08T01:10:24.089Z,3.89
2018-03-08T01:12:54.567Z,3.89
2018-03-08T01:15:22.930Z,3.88
2018-03-08T01:17:51.217Z,3.87
2018-03-08T01:20:19.687Z,3.85
2018-03-08T01:22:48.005Z,3.84
2018-03-08T01:25:16.305Z,3.82
2018-03-08T01:27:44.633Z,3.82
2018-03-08T01:30:13.086Z,3.82
2018-03-08T01:32:41.404Z,3.82
2018-03-08T01:35:09.745Z,3.81
2018-03-08T01:37:38.204Z,3.80
2018-03-08T01:40:06.492Z,3.78
2018-03-08T01:42:34.915Z,3.76
2018-03-08T01:45:03.254Z,3.74
2018-03-08T01:47:31.751Z,3.73
2018-03-08T01:50:00.122Z,3.72
2018-03-08T01:52:28.717Z,3.71
2018-03-08T01:54:57.793Z,3.70
2018-03-08T01:57:26.231Z,3.67
2018-03-08T01:59:54.529Z,3.67
2018-03-08T02:02:23.262Z,3.67
2018-03-08T02:04:51.597Z,3.65
2018-03-08T02:07:19.896Z,3.66
2018-03-08T02:09:51.660Z,3.68
2018-03-08T02:12:19.994Z,3.69
2018-03-08T02:14:48.317Z,3.70
2018-03-08T02:17:20.822Z,3.71
2018-03-08T02:19:49.176Z,3.72
2018-03-08T02:22:17.510Z,3.73
2018-03-08T02:24:46.015Z,3.75
2018-03-08T02:27:14.384Z,3.78
2018-03-08T02:29:44.485Z,3.80
2018-03-08T02:32:14.570Z,3.81
2018-03-08T02:34:42.911Z,3.88
2018-03-08T02:37:11.225Z,3.90
2018-03-08T02:39:39.573Z,3.90
2018-03-08T02:42:07.952Z,3.89
2018-03-08T02:44:36.233Z,3.90
2018-03-08T02:47:04.747Z,3.88
2018-03-08T02:49:33.056Z,3.89
2018-03-08T02:52:01.415Z,3.88
2018-03-08T02:54:31.461Z,3.89
2018-03-08T02:56:59.825Z,3.91
2018-03-08T02:59:28.169Z,3.92
2018-03-08T03:01:56.519Z,3.92
2018-03-08T03:04:25.733Z,3.90
2018-03-08T03:06:55.660Z,3.88
2018-03-08T03:09:26.802Z,3.86
2018-03-08T03:11:55.188Z,3.85
2018-03-08T03:14:25.273Z,3.84
2018-03-08T03:16:53.760Z,3.85
2018-03-08T03:19:22.256Z,3.85
2018-03-08T03:21:50.606Z,3.84
2018-03-08T03:24:18.884Z,3.83
2018-03-08T03:26:47.448Z,3.84
2018-03-08T03:29:15.804Z,3.83
2018-03-08T03:31:44.111Z,3.82
2018-03-08T03:34:12.396Z,3.83
2018-03-08T03:36:40.696Z,3.84
2018-03-08T03:39:09.025Z,3.86
2018-03-08T03:41:42.578Z,3.85
2018-03-08T03:44:10.915Z,3.85
2018-03-08T03:46:40.086Z,3.83
2018-03-08T03:49:08.379Z,3.83
2018-03-08T03:51:36.688Z,3.84
2018-03-08T03:54:05.168Z,3.83
2018-03-08T03:56:33.827Z,3.84
2018-03-08T03:59:02.810Z,3.85
2018-03-08T04:01:31.110Z,3.86
2018-03-08T04:03:59.472Z,3.86
2018-03-08T04:06:27.671Z,3.87
2018-03-08T04:08:55.934Z,3.88
2018-03-08T04:11:24.166Z,3.88
2018-03-08T04:13:52.375Z,3.89
2018-03-08T04:16:20.594Z,3.89
2018-03-08T04:18:48.823Z,3.91
2018-03-08T04:21:17.026Z,3.92
2018-03-08T04:23:45.262Z,3.93
2018-03-08T04:26:13.539Z,3.91
2018-03-08T04:28:41.779Z,3.93
2018-03-08T04:31:10.124Z,3.92
2018-03-08T04:33:38.315Z,3.92
2018-03-08T04:36:06.565Z,3.93
2018-03-08T04:38:34.763Z,3.92
2018-03-08T04:41:03.018Z,3.91
2018-03-08T04:43:31.227Z,3.90
2018-03-08T04:45:59.464Z,3.87
2018-03-08T04:48:27.698Z,3.86
2018-03-08T04:50:55.934Z,3.85
2018-03-08T04:53:24.166Z,3.83
2018-03-08T04:55:52.407Z,3.85
2018-03-08T04:58:20.625Z,3.85
2018-03-08T05:00:48.873Z,3.86
2018-03-08T05:03:17.115Z,3.87
2018-03-08T05:05:45.319Z,3.87
2018-03-08T05:10:47.979Z,3.85
2018-03-08T05:13:16.211Z,3.83
2018-03-08T05:15:44.496Z,3.84
2018-03-08T05:18:12.707Z,3.82
2018-03-08T05:20:40.914Z,3.82
2018-03-08T05:23:09.175Z,3.83
2018-03-08T05:25:37.373Z,3.85
2018-03-08T05:28:05.565Z,3.89
2018-03-08T05:30:33.810Z,3.90
2018-03-08T05:33:02.124Z,3.87
2018-03-08T05:35:30.420Z,3.87
2018-03-08T05:37:58.670Z,3.88
2018-03-08T05:40:26.883Z,3.88
2018-03-08T05:42:55.125Z,3.88
2018-03-08T05:45:23.388Z,3.89
2018-03-08T05:47:51.647Z,3.90
2018-03-08T05:50:19.860Z,3.89
2018-03-08T05:52:48.127Z,3.89
2018-03-08T05:55:16.356Z,3.89
2018-03-08T05:57:44.570Z,3.91
2018-03-08T06:00:12.770Z,3.91
2018-03-08T06:02:41.039Z,3.94
2018-03-08T06:05:09.232Z,3.94
2018-03-08T06:07:37.470Z,3.94
2018-03-08T06:10:05.703Z,3.95
2018-03-08T06:12:33.934Z,3.97
2018-03-08T06:15:02.381Z,3.99
2018-03-08T06:17:30.674Z,3.98
2018-03-08T06:19:58.899Z,3.97
2018-03-08T06:22:27.194Z,3.89
2018-03-08T06:24:55.429Z,3.80
2018-03-08T06:27:23.711Z,3.72
2018-03-08T06:29:51.954Z,3.63
2018-03-08T06:32:20.130Z,3.59
2018-03-08T06:34:48.392Z,3.57
2018-03-08T06:37:16.619Z,3.53
2018-03-08T06:39:45.149Z,3.52
2018-03-08T06:42:13.347Z,3.52
2018-03-08T06:44:41.629Z,3.54
2018-03-08T06:47:09.839Z,3.54
2018-03-08T06:49:38.101Z,3.55
2018-03-08T06:52:06.324Z,3.55
2018-03-08T06:54:34.599Z,3.55
2018-03-08T06:57:02.870Z,3.57
2018-03-08T06:59:31.100Z,3.58
2018-03-08T07:01:59.395Z,3.60
2018-03-08T07:04:27.723Z,3.63
2018-03-08T07:06:56.017Z,3.64
2018-03-08T07:09:24.273Z,3.65
2018-03-08T07:11:52.524Z,3.66
2018-03-08T07:14:20.781Z,3.69
2018-03-08T07:16:49.039Z,3.71
2018-03-08T07:19:17.263Z,3.76
2018-03-08T07:21:45.475Z,3.77
2018-03-08T07:24:13.705Z,3.78
2018-03-08T07:26:41.933Z,3.79
2018-03-08T07:29:10.207Z,3.81
2018-03-08T07:31:38.433Z,3.85
2018-03-08T07:34:06.699Z,3.88
2018-03-08T07:36:34.942Z,3.91
2018-03-08T07:39:03.196Z,3.96
2018-03-08T07:41:31.392Z,4.02
2018-03-08T07:43:59.678Z,4.12
2018-03-08T07:46:27.886Z,4.19
2018-03-08T07:48:56.183Z,4.31
2018-03-08T07:51:24.399Z,4.43
2018-03-08T07:53:52.676Z,4.53
2018-03-08T07:56:20.922Z,4.66
2018-03-08T07:58:49.131Z,4.72
2018-03-08T08:01:17.377Z,4.81
2018-03-08T08:03:45.583Z,4.95
2018-03-08T08:06:25.665Z,5.04
2018-03-08T08:09:05.543Z,5.11
2018-03-08T08:11:33.773Z,5.21
2018-03-08T08:14:01.997Z,5.25
2018-03-08T08:16:30.283Z,5.24
2018-03-08T08:18:58.504Z,5.31
2018-03-08T08:21:26.752Z,5.34
2018-03-08T08:23:54.991Z,5.46
2018-03-08T08:26:23.466Z,5.52
2018-03-08T08:28:51.704Z,5.57
2018-03-08T08:31:19.938Z,5.67
2018-03-08T08:33:48.170Z,5.78
2018-03-08T08:36:16.429Z,5.82
2018-03-08T08:38:44.679Z,5.89
2018-03-08T08:41:12.898Z,6.05
2018-03-08T08:43:41.137Z,6.13
2018-03-08T08:46:09.348Z,6.26
2018-03-08T08:48:37.592Z,6.22
2018-03-08T08:51:05.838Z,6.27
2018-03-08T08:53:34.072Z,6.44
2018-03-08T08:56:02.318Z,6.59
2018-03-08T08:58:30.975Z,6.62
2018-03-08T09:00:59.174Z,6.63
2018-03-08T09:03:27.404Z,6.63
2018-03-08T09:05:55.618Z,6.76
2018-03-08T09:08:23.832Z,6.77
2018-03-08T09:10:52.072Z,6.75
2018-03-08T09:13:20.316Z,6.83
2018-03-08T09:15:48.575Z,6.99
2018-03-08T09:18:16.795Z,7.08
2018-03-08T09:20:45.056Z,7.12
2018-03-08T09:23:13.264Z,7.18
2018-03-08T09:25:41.809Z,7.15
2018-03-08T09:28:10.062Z,7.24
2018-03-08T09:30:38.378Z,7.23
2018-03-08T09:33:06.678Z,7.35
2018-03-08T09:35:34.950Z,7.46
2018-03-08T09:38:03.212Z,7.59
2018-03-08T09:40:31.425Z,7.72
2018-03-08T09:42:59.646Z,7.87
2018-03-08T09:45:27.854Z,8.01
2018-03-08T09:47:56.100Z,8.05
2018-03-08T09:50:24.415Z,8.16
2018-03-08T09:52:52.642Z,8.23
2018-03-08T09:55:20.835Z,8.24
2018-03-08T09:57:49.593Z,8.14
2018-03-08T10:00:17.822Z,8.26
2018-03-08T10:02:46.138Z,8.35
2018-03-08T10:05:14.368Z,8.36
2018-03-08T10:07:42.601Z,8.41
2018-03-08T10:10:10.874Z,8.27
2018-03-08T10:12:39.078Z,8.27
2018-03-08T10:15:07.352Z,8.43
2018-03-08T10:17:35.583Z,8.73
2018-03-08T10:20:03.810Z,8.83
2018-03-08T10:22:32.022Z,8.83
2018-03-08T10:25:00.290Z,8.83
2018-03-08T10:27:28.527Z,8.86
2018-03-08T10:29:56.770Z,8.99
2018-03-08T10:32:24.982Z,8.99
2018-03-08T10:34:53.215Z,8.91
2018-03-08T10:37:21.422Z,9.01
2018-03-08T10:39:49.704Z,9.09
2018-03-08T10:42:17.912Z,9.17
2018-03-08T10:44:46.130Z,9.27
2018-03-08T10:47:14.370Z,9.35
2018-03-08T10:49:42.596Z,9.50
2018-03-08T10:52:10.840Z,9.71
2018-03-08T10:54:39.056Z,9.74
2018-03-08T10:57:07.296Z,9.79
2018-03-08T10:59:35.495Z,9.66
2018-03-08T11:02:03.791Z,9.63
2018-03-08T11:04:35.944Z,9.52
2018-03-08T11:07:04.238Z,9.50
2018-03-08T11:09:32.446Z,9.61
2018-03-08T11:12:00.686Z,9.71
2018-03-08T11:14:28.918Z,9.89
2018-03-08T11:16:57.154Z,9.89
2018-03-08T11:19:25.497Z,9.63
2018-03-08T11:21:53.698Z,9.45
2018-03-08T11:24:21.941Z,9.33
2018-03-08T11:26:50.175Z,9.29
2018-03-08T11:29:18.858Z,9.25
2018-03-08T11:31:47.331Z,9.32
2018-03-08T11:34:15.746Z,9.40
2018-03-08T11:36:44.084Z,9.46
2018-03-08T11:39:12.504Z,9.60
2018-03-08T11:41:40.964Z,9.76
2018-03-08T11:44:09.217Z,9.93
2018-03-08T11:46:37.537Z,10.03
2018-03-08T11:49:06.060Z,10.09
2018-03-08T11:51:34.327Z,10.12
2018-03-08T11:54:02.593Z,10.20
2018-03-08T11:56:30.841Z,10.28
2018-03-08T11:58:59.097Z,10.32
2018-03-08T12:01:27.367Z,10.41
2018-03-08T12:03:55.623Z,10.49
2018-03-08T12:06:24.003Z,10.70
2018-03-08T12:08:52.233Z,10.73
2018-03-08T12:11:20.536Z,10.80
2018-03-08T12:13:48.777Z,10.60
2018-03-08T12:16:17.024Z,10.62
2018-03-08T12:18:45.246Z,10.72
2018-03-08T12:21:13.494Z,10.64
2018-03-08T12:23:41.710Z,10.79
2018-03-08T12:26:09.965Z,11.02
2018-03-08T12:28:38.199Z,10.97
2018-03-08T12:31:06.462Z,11.10
2018-03-08T12:33:34.685Z,10.92
2018-03-08T12:36:02.923Z,10.78
2018-03-08T12:38:31.204Z,10.74
2018-03-08T12:40:59.442Z,10.70
2018-03-08T12:43:27.707Z,10.68
2018-03-08T12:45:55.951Z,10.66
2018-03-08T12:48:24.209Z,10.83
2018-03-08T12:50:52.437Z,10.84
2018-03-08T12:53:20.683Z,10.83
2018-03-08T12:55:48.890Z,10.99
2018-03-08T12:58:17.109Z,11.13
2018-03-08T13:00:45.415Z,11.01
2018-03-08T13:03:13.664Z,11.15
2018-03-08T13:05:41.929Z,11.29
2018-03-08T13:08:10.139Z,11.23
2018-03-08T13:10:38.392Z,11.07
2018-03-08T13:13:06.663Z,11.01
2018-03-08T13:15:34.884Z,10.96
2018-03-08T13:18:03.131Z,10.93
2018-03-08T13:20:31.434Z,11.11
2018-03-08T13:22:59.655Z,11.29
2018-03-08T13:25:27.930Z,11.28
2018-03-08T13:27:56.187Z,11.27
2018-03-08T13:30:24.463Z,11.23
2018-03-08T13:32:52.687Z,11.26
2018-03-08T13:35:21.169Z,11.23
2018-03-08T13:37:49.427Z,11.24
2018-03-08T13:40:17.673Z,11.04
2018-03-08T13:42:45.894Z,11.00
2018-03-08T13:45:14.182Z,11.06
2018-03-08T13:47:42.469Z,11.08
2018-03-08T13:50:10.682Z,11.03
2018-03-08T13:52:38.930Z,11.15
2018-03-08T13:55:07.145Z,11.28
2018-03-08T13:57:35.407Z,11.31
2018-03-08T14:00:03.619Z,11.33
2018-03-08T14:02:31.842Z,11.39
2018-03-08T14:05:00.830Z,11.41
2018-03-08T14:07:29.069Z,11.47
2018-03-08T14:09:57.301Z,11.50
2018-03-08T14:12:25.517Z,11.59
2018-03-08T14:14:53.749Z,11.39
2018-03-08T14:17:21.998Z,11.39
2018-03-08T14:19:50.249Z,11.49
2018-03-08T14:22:18.492Z,11.54
2018-03-08T14:24:46.722Z,11.30
2018-03-08T14:27:14.940Z,11.21
2018-03-08T14:29:43.242Z,11.31
2018-03-08T14:32:11.494Z,11.37
2018-03-08T14:34:39.708Z,11.53
2018-03-08T14:37:07.951Z,11.54
2018-03-08T14:39:36.243Z,11.63
2018-03-08T14:42:04.499Z,11.63
2018-03-08T14:44:32.710Z,11.60
2018-03-08T14:47:00.973Z,11.59
2018-03-08T14:49:29.250Z,11.66
2018-03-08T14:51:57.527Z,11.85
2018-03-08T14:54:25.867Z,12.07
2018-03-08T14:56:54.124Z,12.17
2018-03-08T14:59:22.405Z,12.34
2018-03-08T15:01:50.609Z,12.47
2018-03-08T15:04:18.880Z,12.51
2018-03-08T15:06:47.106Z,12.55
2018-03-08T15:09:16.195Z,12.61
2018-03-08T15:11:44.436Z,12.21
2018-03-08T15:14:12.681Z,12.08
2018-03-08T15:16:40.954Z,12.11
2018-03-08T15:19:09.226Z,12.24
2018-03-08T15:21:37.465Z,12.50
2018-03-08T15:24:05.698Z,12.54
2018-03-08T15:26:33.938Z,12.57
2018-03-08T15:29:02.182Z,12.74
2018-03-08T15:31:30.422Z,12.72
2018-03-08T15:33:58.677Z,12.39
2018-03-08T15:36:26.933Z,12.06
2018-03-08T15:38:55.216Z,11.73
2018-03-08T15:41:23.563Z,11.44
2018-03-08T15:43:51.985Z,11.27
2018-03-08T15:46:20.226Z,11.19
2018-03-08T15:48:48.452Z,11.12
2018-03-08T15:51:16.700Z,11.08
2018-03-08T15:53:44.922Z,11.04
2018-03-08T15:56:13.188Z,11.04
2018-03-08T15:58:41.437Z,11.02
2018-03-08T16:01:09.694Z,11.00
2018-03-08T16:03:37.923Z,10.97
2018-03-08T16:06:06.124Z,10.96
2018-03-08T16:08:46.338Z,10.90
2018-03-08T16:11:14.637Z,10.83
2018-03-08T16:13:42.978Z,10.78
2018-03-08T16:16:11.218Z,10.74
2018-03-08T16:18:39.492Z,10.69
2018-03-08T16:21:07.712Z,10.62
2018-03-08T16:23:35.952Z,10.56
2018-03-08T16:26:04.374Z,10.52
2018-03-08T16:28:32.651Z,10.46
2018-03-08T16:31:00.878Z,10.36
2018-03-08T16:33:29.114Z,10.29
2018-03-08T16:35:57.365Z,10.21
2018-03-08T16:38:25.594Z,10.17
2018-03-08T16:40:53.827Z,10.09
2018-03-08T16:43:22.088Z,9.98
2018-03-08T16:45:50.331Z,9.92
2018-03-08T16:48:18.556Z,9.86
2018-03-08T16:50:46.795Z,9.79
2018-03-08T16:53:14.995Z,9.71
2018-03-08T16:55:43.252Z,9.65
2018-03-08T16:58:11.476Z,9.59
2018-03-08T17:00:39.757Z,9.54
2018-03-08T17:03:07.994Z,9.46
2018-03-08T17:05:36.231Z,9.40
2018-03-08T17:08:04.488Z,9.32
2018-03-08T17:10:32.806Z,9.23
2018-03-08T17:13:01.116Z,9.13
2018-03-08T17:15:29.331Z,9.06
2018-03-08T17:17:57.584Z,9.01
2018-03-08T17:20:25.816Z,8.96
2018-03-08T17:22:54.048Z,8.92
2018-03-08T17:25:22.346Z,8.87
2018-03-08T17:27:50.587Z,8.85
2018-03-08T17:30:18.835Z,8.78
2018-03-08T17:32:47.036Z,8.73
2018-03-08T17:35:15.286Z,8.63
2018-03-08T17:37:43.534Z,8.58
2018-03-08T17:40:11.806Z,8.56
2018-03-08T17:42:40.101Z,8.55
2018-03-08T17:45:08.346Z,8.52
2018-03-08T17:47:36.608Z,8.49
2018-03-08T17:50:04.798Z,8.43
2018-03-08T17:52:33.043Z,8.38
2018-03-08T17:55:01.550Z,8.35
2018-03-08T17:57:29.837Z,8.32
2018-03-08T17:59:58.140Z,8.28
2018-03-08T18:02:26.306Z,8.23
2018-03-08T18:04:54.572Z,8.17
2018-03-08T18:07:22.776Z,8.12
2018-03-08T18:09:51.028Z,8.06
2018-03-08T18:12:19.264Z,8.02
2018-03-08T18:14:47.471Z,7.97
2018-03-08T18:17:15.727Z,7.88
2018-03-08T18:19:43.958Z,7.79
2018-03-08T18:22:12.206Z,7.71
2018-03-08T18:24:40.474Z,7.65
2018-03-08T18:27:08.759Z,7.61
2018-03-08T18:29:36.973Z,7.61
2018-03-08T18:32:05.199Z,7.57
2018-03-08T18:34:33.568Z,7.57
2018-03-08T18:37:01.872Z,7.57
2018-03-08T18:39:31.455Z,7.58
2018-03-08T18:41:59.840Z,7.57
2018-03-08T18:44:28.214Z,7.53
2018-03-08T18:46:56.472Z,7.19
2018-03-08T18:49:24.759Z,7.05
2018-03-08T18:51:52.981Z,7.01
2018-03-08T18:54:21.266Z,6.98
2018-03-08T18:56:49.581Z,6.92
2018-03-08T18:59:18.102Z,6.89
2018-03-08T19:01:46.418Z,6.86
2018-03-08T19:04:14.643Z,6.83
2018-03-08T19:06:43.833Z,6.81
2018-03-08T19:09:12.084Z,6.80
2018-03-08T19:11:40.468Z,6.73
2018-03-08T19:14:08.675Z,6.65
2018-03-08T19:16:36.933Z,6.53
2018-03-08T19:19:05.193Z,6.41
2018-03-08T19:21:33.445Z,6.30
2018-03-08T19:24:01.799Z,6.19
2018-03-08T19:26:30.216Z,6.11
2018-03-08T19:28:58.495Z,6.06
2018-03-08T19:31:26.783Z,6.00
2018-03-08T19:33:55.023Z,5.98
2018-03-08T19:36:23.294Z,5.94
2018-03-08T19:38:51.594Z,5.93
2018-03-08T19:41:20.084Z,5.86
2018-03-08T19:43:48.377Z,5.84
2018-03-08T19:46:16.636Z,5.82
2018-03-08T19:48:44.910Z,5.79
2018-03-08T19:51:13.169Z,5.72
2018-03-08T19:53:41.439Z,5.69
2018-03-08T19:56:09.746Z,5.66
2018-03-08T19:58:38.086Z,5.67
2018-03-08T20:01:06.377Z,5.70
2018-03-08T20:03:34.775Z,5.63
2018-03-08T20:06:02.984Z,5.54
2018-03-08T20:08:31.226Z,5.46
2018-03-08T20:10:59.516Z,5.36
2018-03-08T20:13:28.262Z,5.23
2018-03-08T20:15:56.547Z,5.18
2018-03-08T20:18:24.805Z,5.14
2018-03-08T20:20:53.143Z,5.07
2018-03-08T20:23:21.579Z,4.99
2018-03-08T20:25:49.872Z,4.93
2018-03-08T20:28:18.102Z,4.84
2018-03-08T20:30:46.620Z,4.69
2018-03-08T20:33:14.855Z,4.67
2018-03-08T20:35:43.124Z,4.60
2018-03-08T20:38:11.440Z,4.56
2018-03-08T20:40:39.686Z,4.58
2018-03-08T20:43:08.008Z,4.60
2018-03-08T20:45:36.524Z,4.56
2018-03-08T20:48:04.759Z,4.55
2018-03-08T20:50:32.978Z,4.51
2018-03-08T20:53:01.264Z,4.46
2018-03-08T20:55:29.537Z,4.42
2018-03-08T20:57:57.799Z,4.35
2018-03-08T21:00:26.152Z,4.32
2018-03-08T21:02:54.421Z,4.25
2018-03-08T21:05:22.678Z,4.15
2018-03-08T21:07:50.950Z,4.04
2018-03-08T21:10:19.183Z,4.01
2018-03-08T21:12:47.467Z,3.91
2018-03-08T21:15:15.704Z,3.89
2018-03-08T21:17:43.992Z,3.87
2018-03-08T21:20:12.228Z,3.80
2018-03-08T21:22:40.704Z,3.81
2018-03-08T21:25:08.978Z,3.78
2018-03-08T21:27:37.255Z,3.76
2018-03-08T21:30:05.511Z,3.75
2018-03-08T21:32:33.849Z,3.74
2018-03-08T21:35:02.184Z,3.77
2018-03-08T21:37:30.419Z,3.80
2018-03-08T21:39:58.798Z,3.81
2018-03-08T21:42:27.228Z,3.82
2018-03-08T21:44:55.804Z,3.80
2018-03-08T21:47:24.245Z,3.77
2018-03-08T21:49:52.492Z,3.77
2018-03-08T21:52:20.717Z,3.77
2018-03-08T21:54:48.969Z,3.76
2018-03-08T21:57:17.483Z,3.73
2018-03-08T21:59:45.701Z,3.73
2018-03-08T22:02:13.941Z,3.73
2018-03-08T22:04:42.171Z,3.78
2018-03-08T22:07:10.493Z,3.83
2018-03-08T22:09:38.717Z,3.88
2018-03-08T22:12:06.970Z,3.92
2018-03-08T22:14:35.216Z,3.96
2018-03-08T22:17:03.459Z,3.99
2018-03-08T22:19:31.684Z,4.04
2018-03-08T22:21:59.950Z,4.06
2018-03-08T22:24:28.177Z,4.10
2018-03-08T22:26:56.467Z,4.11
2018-03-08T22:29:24.681Z,4.11
2018-03-08T22:31:52.930Z,4.12
2018-03-08T22:34:21.167Z,4.14
2018-03-08T22:36:50.113Z,4.16
2018-03-08T22:39:19.020Z,4.22
2018-03-08T22:41:47.291Z,4.29
2018-03-08T22:44:15.519Z,4.28
2018-03-08T22:46:43.724Z,4.17
2018-03-08T22:49:11.985Z,4.12
2018-03-08T22:51:40.242Z,4.11
2018-03-08T22:54:08.496Z,4.13
2018-03-08T22:56:36.744Z,4.14
2018-03-08T22:59:05.025Z,4.21
2018-03-08T23:04:54.905Z,4.42
2018-03-08T23:07:23.242Z,4.47
2018-03-08T23:09:51.723Z,4.53
2018-03-08T23:12:20.038Z,4.58
2018-03-08T23:14:48.384Z,4.62
2018-03-08T23:17:16.744Z,4.64
2018-03-08T23:19:46.062Z,4.67
2018-03-08T23:22:14.361Z,4.69
2018-03-08T23:24:44.646Z,4.69
2018-03-08T23:27:13.845Z,4.68
2018-03-08T23:29:42.216Z,4.66
2018-03-08T23:32:12.467Z,4.61
2018-03-08T23:34:43.171Z,4.57
2018-03-08T23:37:11.500Z,4.56
2018-03-08T23:39:41.473Z,4.53
2018-03-08T23:42:09.894Z,4.47
2018-03-08T23:44:40.712Z,4.41
2018-03-08T23:47:09.071Z,4.38
2018-03-08T23:49:37.367Z,4.40
2018-03-08T23:52:05.672Z,4.46
2018-03-08T23:54:34.765Z,4.51
2018-03-08T23:57:03.094Z,4.58
2018-03-08T23:59:31.427Z,4.62
